Time;durP1;ratioP1;P1;durP2;ratioP2;P2;SDS_P1;SDS_P2;PMS_P1;PMS_P2;Temp;Humidity;BMP_temperature;BMP_pressure;BME280_temperature;BME280_humidity;BME280_pressure;Samples;Min_cycle;Max_cycle;Signal;HPM_P1;HPM_P2
2020/12/21 00:01:52;;;;;;;24.30;13.60;;;6.50;93.00;;;;;;5011300;28;20038;-74
2020/12/21 00:04:19;;;;;;;29.10;13.67;;;6.50;93.00;;;;;;5011329;28;20087;-73
2020/12/21 00:06:49;;;;;;;30.17;13.80;;;6.50;93.10;;;;;;5012009;28;20459;-72
2020/12/21 00:09:15;;;;;;;27.92;13.55;;;6.50;93.10;;;;;;5012597;28;20402;-73
2020/12/21 00:11:41;;;;;;;27.03;13.53;;;6.50;92.90;;;;;;5011852;28;20037;-73
2020/12/21 00:14:08;;;;;;;26.10;13.27;;;6.40;93.10;;;;;;5043144;28;20050;-73
2020/12/21 00:16:42;;;;;;;28.80;13.90;;;6.50;93.20;;;;;;5010955;28;20042;-73
2020/12/21 00:19:09;;;;;;;25.77;13.93;;;6.40;93.10;;;;;;5043640;28;20042;-73
2020/12/21 00:21:36;;;;;;;25.30;13.33;;;6.40;93.10;;;;;;5043450;28;20034;-73
2020/12/21 00:24:03;;;;;;;28.03;13.80;;;6.40;93.20;;;;;;5011499;28;20040;-72
2020/12/21 00:26:29;;;;;;;30.23;12.73;;;6.40;93.20;;;;;;5010711;28;20070;-73
2020/12/21 00:28:54;;;;;;;27.77;12.83;;;6.40;93.20;;;;;;5012112;28;20062;-73
2020/12/21 00:31:26;;;;;;;29.27;12.90;;;6.30;93.00;;;;;;5010408;28;20109;-73
2020/12/21 00:33:52;;;;;;;26.93;12.33;;;6.30;93.10;;;;;;5043173;28;20503;-73
2020/12/21 00:36:18;;;;;;;22.10;12.90;;;6.30;93.10;;;;;;5011416;28;20054;-73
2020/12/21 00:38:44;;;;;;;32.00;12.90;;;6.20;93.00;;;;;;5011834;28;20042;-73
2020/12/21 00:41:15;;;;;;;29.33;13.67;;;6.20;93.20;;;;;;5011797;28;20048;-73
2020/12/21 00:43:42;;;;;;;28.13;12.93;;;6.10;93.20;;;;;;5010806;28;20034;-73
2020/12/21 00:46:16;;;;;;;25.67;12.77;;;6.10;93.20;;;;;;5010338;28;20419;-73
2020/12/21 00:48:43;;;;;;;28.80;13.33;;;6.10;93.20;;;;;;5011455;28;20395;-73
2020/12/21 00:51:09;;;;;;;28.47;13.17;;;6.10;93.20;;;;;;5011751;28;20515;-73
2020/12/21 00:53:36;;;;;;;26.20;13.50;;;6.00;93.20;;;;;;5042355;28;20030;-73
2020/12/21 00:56:03;;;;;;;33.60;13.70;;;6.00;93.20;;;;;;5011495;28;20034;-73
2020/12/21 00:58:36;;;;;;;29.97;13.57;;;5.90;93.20;;;;;;5010375;28;20537;-73
2020/12/21 01:01:10;;;;;;;29.93;14.60;;;5.90;93.10;;;;;;5011301;28;20060;-73
2020/12/21 01:03:36;;;;;;;30.97;15.20;;;5.80;93.20;;;;;;5009192;28;20037;-73
2020/12/21 01:06:05;;;;;;;30.67;14.80;;;5.80;93.20;;;;;;5010927;28;20052;-73
2020/12/21 01:08:33;;;;;;;33.97;15.37;;;5.70;93.20;;;;;;5011365;28;20514;-73
2020/12/21 01:10:59;;;;;;;35.87;16.13;;;5.70;93.40;;;;;;5010982;28;20048;-73
2020/12/21 01:13:25;;;;;;;27.17;14.83;;;5.60;93.40;;;;;;5009275;28;20034;-73
2020/12/21 01:15:50;;;;;;;31.97;15.50;;;5.60;93.40;;;;;;5011432;28;20041;-73
2020/12/21 01:18:16;;;;;;;32.43;15.37;;;5.60;93.30;;;;;;5010859;28;20040;-73
2020/12/21 01:20:42;;;;;;;34.73;17.20;;;5.50;93.30;;;;;;5011273;28;20041;-73
2020/12/21 01:23:08;;;;;;;31.87;15.27;;;5.50;93.40;;;;;;5010085;28;20041;-72
2020/12/21 01:25:35;;;;;;;31.47;15.10;;;5.50;93.60;;;;;;5011225;28;20042;-73
2020/12/21 01:28:01;;;;;;;36.57;16.37;;;5.50;93.50;;;;;;5011252;28;20042;-73
2020/12/21 01:30:27;;;;;;;33.57;16.07;;;5.40;93.70;;;;;;5010860;28;20044;-73
2020/12/21 01:32:52;;;;;;;30.30;16.17;;;5.40;93.50;;;;;;5010531;28;20121;-73
2020/12/21 01:35:18;;;;;;;32.87;16.70;;;5.40;93.60;;;;;;5010810;28;20049;-73
2020/12/21 01:37:44;;;;;;;33.13;14.87;;;5.40;93.70;;;;;;5010937;28;20491;-73
2020/12/21 01:40:10;;;;;;;34.00;16.83;;;5.40;93.60;;;;;;5011618;28;20547;-73
2020/12/21 01:42:37;;;;;;;35.40;16.80;;;5.40;93.60;;;;;;5010026;28;20042;-73
2020/12/21 01:45:07;;;;;;;38.20;17.63;;;5.30;93.70;;;;;;5011024;28;20045;-73
2020/12/21 01:47:34;;;;;;;37.10;15.88;;;5.30;93.80;;;;;;5010671;28;20030;-73
2020/12/21 01:50:00;;;;;;;37.77;16.87;;;5.30;93.90;;;;;;5011275;28;20038;-73
2020/12/21 01:52:26;;;;;;;33.57;15.73;;;5.30;93.70;;;;;;5041564;28;20422;-73
2020/12/21 01:54:52;;;;;;;35.20;15.63;;;5.30;93.70;;;;;;5010973;28;20096;-73
2020/12/21 01:57:18;;;;;;;43.47;16.87;;;5.30;93.70;;;;;;5042765;28;20054;-73
2020/12/21 01:59:44;;;;;;;36.87;16.07;;;5.20;93.70;;;;;;5042349;28;20050;-73
2020/12/21 02:02:11;;;;;;;37.70;16.87;;;5.20;93.80;;;;;;4992586;28;20030;-73
2020/12/21 02:04:37;;;;;;;38.40;16.23;;;5.20;93.90;;;;;;5010826;28;20053;-73
2020/12/21 02:07:05;;;;;;;37.83;16.53;;;5.20;94.20;;;;;;5025412;28;20050;-73
2020/12/21 02:09:31;;;;;;;31.40;13.90;;;5.30;94.40;;;;;;5010879;28;20072;-73
2020/12/21 02:11:57;;;;;;;34.20;14.10;;;5.40;94.40;;;;;;5008406;28;20411;-73
2020/12/21 02:14:23;;;;;;;30.23;13.37;;;5.50;94.40;;;;;;5010699;28;20556;-73
2020/12/21 02:16:48;;;;;;;24.10;11.60;;;5.60;94.50;;;;;;5012757;28;20557;-73
2020/12/21 02:19:14;;;;;;;24.63;11.63;;;5.70;94.60;;;;;;5014089;28;20537;-73
2020/12/21 02:21:40;;;;;;;23.30;10.70;;;5.80;94.70;;;;;;5013849;28;20029;-73
2020/12/21 02:24:06;;;;;;;22.70;10.90;;;5.80;94.60;;;;;;5013902;28;20041;-73
2020/12/21 02:26:32;;;;;;;22.97;11.07;;;5.90;94.50;;;;;;5014230;28;20038;-73
2020/12/21 02:28:59;;;;;;;21.87;10.73;;;6.00;94.50;;;;;;5012935;28;20462;-73
2020/12/21 02:31:26;;;;;;;25.63;11.03;;;6.00;94.50;;;;;;5013908;28;20038;-73
2020/12/21 02:33:52;;;;;;;22.40;9.77;;;6.10;94.50;;;;;;5013586;28;20048;-73
2020/12/21 02:36:18;;;;;;;20.37;10.27;;;6.10;94.50;;;;;;5013638;28;20040;-73
2020/12/21 02:38:44;;;;;;;20.67;9.57;;;6.20;94.60;;;;;;5014205;28;20038;-73
2020/12/21 02:41:15;;;;;;;18.63;9.43;;;6.20;94.50;;;;;;5013619;28;20104;-72
2020/12/21 02:43:41;;;;;;;27.83;9.97;;;6.30;94.40;;;;;;5012018;28;20037;-73
2020/12/21 02:46:08;;;;;;;20.67;9.30;;;6.30;94.30;;;;;;5012651;28;20121;-73
2020/12/21 02:48:34;;;;;;;21.00;9.43;;;6.30;94.20;;;;;;4995766;28;20088;-73
2020/12/21 02:51:00;;;;;;;24.13;9.40;;;6.30;94.10;;;;;;5012636;28;20439;-73
2020/12/21 02:53:26;;;;;;;21.30;9.87;;;6.30;94.10;;;;;;5012614;28;20104;-73
2020/12/21 02:55:52;;;;;;;22.13;9.50;;;6.20;94.10;;;;;;5013816;28;20042;-73
2020/12/21 02:58:17;;;;;;;21.50;9.53;;;6.20;93.90;;;;;;5011360;28;20423;-73
2020/12/21 03:00:44;;;;;;;21.73;9.77;;;6.10;93.80;;;;;;5013224;28;20073;-73
2020/12/21 03:03:10;;;;;;;24.97;10.23;;;6.00;93.80;;;;;;5012987;28;20046;-73
2020/12/21 03:05:35;;;;;;;24.10;10.03;;;6.00;93.90;;;;;;5013296;28;20034;-72
2020/12/21 03:08:04;;;;;;;27.23;10.60;;;5.90;94.20;;;;;;5013591;28;20399;-73
2020/12/21 03:10:30;;;;;;;22.07;10.03;;;5.90;94.20;;;;;;5029051;28;20068;-73
2020/12/21 03:12:56;;;;;;;23.57;10.23;;;5.90;94.10;;;;;;5027626;28;20100;-73
2020/12/21 03:15:21;;;;;;;22.83;10.10;;;5.90;94.00;;;;;;4995782;28;20103;-73
2020/12/21 03:17:48;;;;;;;23.37;10.60;;;5.90;94.10;;;;;;5013028;28;20080;-73
2020/12/21 03:20:14;;;;;;;24.57;9.90;;;5.90;94.10;;;;;;5013407;28;20041;-73
2020/12/21 03:22:39;;;;;;;25.37;9.80;;;5.80;94.20;;;;;;5012676;28;20038;-73
2020/12/21 03:25:05;;;;;;;23.00;9.97;;;5.80;94.20;;;;;;5012891;28;20056;-73
2020/12/21 03:27:31;;;;;;;21.60;10.03;;;5.80;94.40;;;;;;5012595;28;20030;-73
2020/12/21 03:29:57;;;;;;;22.90;9.40;;;5.90;94.70;;;;;;5012883;28;20030;-72
2020/12/21 03:32:23;;;;;;;25.30;9.37;;;6.00;94.70;;;;;;5011200;28;20745;-73
2020/12/21 03:34:52;;;;;;;21.10;9.20;;;6.10;94.70;;;;;;5044859;28;20053;-73
2020/12/21 03:37:18;;;;;;;20.10;8.93;;;6.10;94.50;;;;;;5012469;28;20034;-73
2020/12/21 03:39:43;;;;;;;22.60;9.67;;;6.10;94.50;;;;;;5013109;28;20503;-73
2020/12/21 03:42:09;;;;;;;22.60;9.63;;;6.20;94.50;;;;;;5011854;28;20041;-73
2020/12/21 03:44:35;;;;;;;24.37;9.17;;;6.20;94.40;;;;;;5012833;28;20034;-73
2020/12/21 03:47:01;;;;;;;20.03;9.17;;;6.20;94.30;;;;;;5012824;28;20088;-73
2020/12/21 03:49:26;;;;;;;20.73;9.27;;;6.20;94.30;;;;;;5012392;28;20041;-73
2020/12/21 03:51:52;;;;;;;24.90;9.47;;;6.20;94.40;;;;;;5010899;28;20048;-73
2020/12/21 03:54:18;;;;;;;19.73;8.97;;;6.20;94.50;;;;;;5011087;28;20030;-73
2020/12/21 03:56:44;;;;;;;17.53;8.83;;;6.30;94.60;;;;;;5044366;28;20116;-73
2020/12/21 03:59:11;;;;;;;19.10;8.07;;;6.30;94.60;;;;;;5012608;28;20064;-73
2020/12/21 04:01:37;;;;;;;20.70;8.70;;;6.40;94.60;;;;;;5010520;28;20048;-73
2020/12/21 04:04:06;;;;;;;16.90;7.77;;;6.50;94.70;;;;;;5010058;28;20466;-73
2020/12/21 04:06:33;;;;;;;22.87;8.60;;;6.50;94.60;;;;;;5042709;28;20056;-73
2020/12/21 04:08:58;;;;;;;22.87;8.63;;;6.60;94.60;;;;;;5011570;28;20030;-73
2020/12/21 04:11:24;;;;;;;18.70;8.53;;;6.60;94.60;;;;;;5011093;28;20392;-73
2020/12/21 04:13:50;;;;;;;18.37;8.60;;;6.70;94.70;;;;;;5009239;28;20050;-73
2020/12/21 04:16:15;;;;;;;20.37;8.13;;;6.80;94.60;;;;;;5010067;28;20121;-73
2020/12/21 04:18:41;;;;;;;23.17;8.13;;;6.80;94.80;;;;;;5010032;28;20038;-73
2020/12/21 04:21:11;;;;;;;21.57;8.30;;;6.90;94.60;;;;;;5012105;28;20057;-74
2020/12/21 04:23:37;;;;;;;20.53;8.10;;;6.90;94.50;;;;;;5011268;28;20040;-73
2020/12/21 04:26:04;;;;;;;18.73;7.87;;;7.00;94.50;;;;;;4992295;28;20042;-73
2020/12/21 04:28:30;;;;;;;20.80;8.73;;;7.00;94.40;;;;;;5024313;28;20033;-73
2020/12/21 04:30:56;;;;;;;22.20;8.37;;;7.00;94.40;;;;;;5029304;28;20209;-72
2020/12/21 04:33:21;;;;;;;19.37;7.43;;;7.10;94.40;;;;;;5024474;28;20047;-73
2020/12/21 04:35:47;;;;;;;19.80;8.53;;;7.10;94.30;;;;;;5020434;28;20033;-73
2020/12/21 04:38:13;;;;;;;19.33;8.23;;;7.20;94.30;;;;;;5020365;28;20034;-73
2020/12/21 04:40:39;;;;;;;18.37;8.33;;;7.20;94.20;;;;;;5011622;28;20498;-73
2020/12/21 04:43:07;;;;;;;22.93;8.83;;;7.20;94.20;;;;;;5010745;28;20491;-73
2020/12/21 04:45:34;;;;;;;20.73;9.10;;;7.20;94.10;;;;;;5011140;28;20037;-73
2020/12/21 04:48:06;;;;;;;19.83;8.30;;;7.20;94.10;;;;;;5012283;28;20045;-73
2020/12/21 04:50:32;;;;;;;19.17;8.40;;;7.20;94.10;;;;;;5028926;28;20048;-73
2020/12/21 04:52:59;;;;;;;18.77;9.10;;;7.30;94.30;;;;;;5030447;28;20045;-73
2020/12/21 04:55:25;;;;;;;17.87;7.93;;;7.30;94.00;;;;;;5027041;28;20030;-74
2020/12/21 04:58:04;;;;;;;20.87;8.53;;;7.30;94.00;;;;;;5011075;28;20386;-73
2020/12/21 05:00:32;;;;;;;23.50;9.03;;;7.30;94.00;;;;;;5010782;28;20549;-73
2020/12/21 05:02:58;;;;;;;19.00;8.20;;;7.30;94.00;;;;;;5010794;28;20066;-73
2020/12/21 05:05:41;;;;;;;24.73;9.27;;;7.30;94.10;;;;;;5011046;28;20046;-73
2020/12/21 05:08:25;;;;;;;17.37;8.00;;;7.40;93.90;;;;;;5010085;28;20038;-73
2020/12/21 05:11:02;;;;;;;22.37;9.13;;;7.40;93.80;;;;;;5011387;28;20037;-73
2020/12/21 05:13:30;;;;;;;19.63;8.97;;;7.40;93.80;;;;;;5010089;28;20478;-74
2020/12/21 05:15:57;;;;;;;17.67;8.77;;;7.40;93.70;;;;;;5009938;28;20091;-73
2020/12/21 05:18:28;;;;;;;20.40;9.33;;;7.40;93.70;;;;;;5011124;28;20513;-73
2020/12/21 05:20:55;;;;;;;18.97;8.67;;;7.40;93.60;;;;;;5010944;28;20034;-73
2020/12/21 05:23:21;;;;;;;22.07;9.07;;;7.40;93.50;;;;;;5010624;28;20034;-73
2020/12/21 05:25:58;;;;;;;17.53;8.90;;;7.40;93.50;;;;;;5010830;28;20495;-73
2020/12/21 05:28:27;;;;;;;18.17;8.10;;;7.40;93.40;;;;;;5011134;28;20037;-73
2020/12/21 05:30:57;;;;;;;20.90;9.10;;;7.40;93.30;;;;;;5010769;28;20080;-73
2020/12/21 05:33:23;;;;;;;18.77;8.93;;;7.40;93.30;;;;;;5010641;28;20034;-73
2020/12/21 05:35:49;;;;;;;15.77;8.50;;;7.40;93.30;;;;;;5010939;28;20045;-73
2020/12/21 05:38:29;;;;;;;16.37;8.57;;;7.40;93.30;;;;;;5011193;28;20038;-73
2020/12/21 05:41:13;;;;;;;20.00;8.60;;;7.40;93.30;;;;;;5010945;28;20038;-73
2020/12/21 05:43:40;;;;;;;22.10;9.50;;;7.40;93.30;;;;;;5010420;28;20041;-73
2020/12/21 05:46:06;;;;;;;22.97;9.47;;;7.30;93.20;;;;;;5010030;28;20487;-73
2020/12/21 05:48:34;;;;;;;16.20;8.50;;;7.40;93.30;;;;;;5016249;28;20057;-73
2020/12/21 05:51:01;;;;;;;22.60;9.03;;;7.40;93.30;;;;;;5022635;28;20037;-73
2020/12/21 05:53:35;;;;;;;21.23;8.63;;;7.40;93.20;;;;;;5019976;28;20038;-73
2020/12/21 05:56:05;;;;;;;19.37;8.90;;;7.40;93.20;;;;;;5020372;28;20107;-73
2020/12/21 05:58:32;;;;;;;18.07;9.50;;;7.40;93.20;;;;;;5024542;28;20113;-73
2020/12/21 06:01:10;;;;;;;18.17;8.50;;;7.40;93.20;;;;;;5016334;28;20046;-73
2020/12/21 06:03:42;;;;;;;21.70;9.30;;;7.40;93.40;;;;;;5014807;28;20134;-73
2020/12/21 06:06:16;;;;;;;19.07;9.27;;;7.40;93.10;;;;;;5026125;28;20057;-73
2020/12/21 06:08:43;;;;;;;19.43;9.07;;;7.40;93.10;;;;;;5025312;28;20061;-73
2020/12/21 06:11:34;;;;;;;18.17;8.80;;;7.50;93.10;;;;;;5034505;28;20038;-73
2020/12/21 06:14:00;;;;;;;19.73;9.95;;;7.40;93.00;;;;;;5025081;28;20458;-73
2020/12/21 06:16:31;;;;;;;18.07;9.27;;;7.50;93.00;;;;;;5025341;28;20117;-73
2020/12/21 06:18:57;;;;;;;20.02;9.60;;;7.50;93.00;;;;;;5022281;28;20076;-73
2020/12/21 06:21:30;;;;;;;25.37;10.53;;;7.50;93.00;;;;;;5019814;28;20054;-73
2020/12/21 06:23:57;;;;;;;20.97;9.33;;;7.50;93.00;;;;;;5020271;28;20513;-73
2020/12/21 06:26:34;;;;;;;24.30;9.77;;;7.50;92.90;;;;;;5014320;28;20137;-73
2020/12/21 06:29:10;;;;;;;20.33;9.47;;;7.50;92.90;;;;;;5018058;28;20048;-73
2020/12/21 06:31:46;;;;;;;20.77;10.17;;;7.50;93.10;;;;;;5006355;28;20133;-73
2020/12/21 06:34:17;;;;;;;19.23;8.97;;;7.60;92.90;;;;;;4997856;28;20042;-73
2020/12/21 06:36:47;;;;;;;21.07;8.93;;;7.60;92.90;;;;;;5020184;28;20030;-73
2020/12/21 06:39:25;;;;;;;19.30;9.07;;;7.60;92.80;;;;;;5027515;28;20037;-72
2020/12/21 06:42:15;;;;;;;18.23;9.30;;;7.60;92.80;;;;;;5032758;28;20033;-73
2020/12/21 06:44:42;;;;;;;22.10;9.40;;;7.60;92.80;;;;;;5047902;28;20053;-73
2020/12/21 06:47:11;;;;;;;22.87;8.80;;;7.60;92.70;;;;;;5033515;28;20034;-73
2020/12/21 06:49:37;;;;;;;20.30;8.70;;;7.60;92.70;;;;;;5033290;28;20129;-73
2020/12/21 06:52:03;;;;;;;18.00;8.63;;;7.60;92.70;;;;;;5033102;28;20044;-74
2020/12/21 06:54:30;;;;;;;19.33;9.57;;;7.60;92.80;;;;;;5031853;28;20574;-73
2020/12/21 06:56:55;;;;;;;20.30;9.70;;;7.60;92.70;;;;;;5065182;28;20037;-74
2020/12/21 06:59:26;;;;;;;26.10;10.83;;;7.60;92.60;;;;;;5033575;28;20112;-73
2020/12/21 07:01:54;;;;;;;24.75;10.27;;;7.70;92.60;;;;;;5031606;28;20041;-73
2020/12/21 07:04:22;;;;;;;20.40;9.87;;;7.70;92.60;;;;;;5033466;28;20036;-73
2020/12/21 07:06:49;;;;;;;22.20;10.73;;;7.70;92.50;;;;;;5064741;28;20046;-73
2020/12/21 07:09:29;;;;;;;22.40;10.20;;;7.70;92.50;;;;;;5033214;28;20037;-73
2020/12/21 07:12:01;;;;;;;23.30;9.38;;;7.70;92.50;;;;;;5032309;28;20064;-73
2020/12/21 07:14:28;;;;;;;19.27;9.10;;;7.70;92.40;;;;;;5033135;28;20049;-73
2020/12/21 07:17:11;;;;;;;18.73;8.40;;;7.60;92.40;;;;;;5032576;28;20041;-74
2020/12/21 07:19:44;;;;;;;24.73;8.80;;;7.70;92.40;;;;;;5033081;28;20065;-73
2020/12/21 07:22:13;;;;;;;20.80;9.57;;;7.60;92.30;;;;;;5063659;28;20114;-73
2020/12/21 07:24:41;;;;;;;20.67;8.13;;;7.60;92.20;;;;;;5033003;28;20047;-73
2020/12/21 07:27:07;;;;;;;18.27;8.50;;;7.60;92.20;;;;;;5032304;28;20517;-73
2020/12/21 07:29:35;;;;;;;21.37;8.83;;;7.60;92.20;;;;;;5032831;28;20124;-73
2020/12/21 07:32:01;;;;;;;21.30;8.60;;;7.50;92.20;;;;;;5063978;28;20537;-73
2020/12/21 07:34:27;;;;;;;20.47;8.43;;;7.50;92.10;;;;;;5032856;28;20037;-73
2020/12/21 07:36:53;;;;;;;24.13;8.93;;;7.50;92.10;;;;;;5031441;28;20545;-73
2020/12/21 07:39:20;;;;;;;24.17;9.87;;;7.50;92.40;;;;;;5032805;28;20041;-75
2020/12/21 07:41:48;;;;;;;19.23;8.27;;;7.50;92.10;;;;;;5032180;28;20052;-75
2020/12/21 07:44:25;;;;;;;20.03;8.87;;;7.40;91.90;;;;;;5031119;28;20045;-75
2020/12/21 07:46:56;;;;;;;25.50;10.10;;;7.30;92.00;;;;;;5032629;28;20049;-75
2020/12/21 07:49:23;;;;;;;19.63;9.40;;;7.30;91.90;;;;;;5032082;28;20037;-75
2020/12/21 07:51:49;;;;;;;22.03;9.00;;;7.30;91.90;;;;;;5030738;28;20128;-75
2020/12/21 07:54:15;;;;;;;21.90;9.83;;;7.20;91.90;;;;;;5032498;28;20038;-75
2020/12/21 07:56:41;;;;;;;23.57;10.23;;;7.20;91.90;;;;;;5030562;28;20091;-75
2020/12/21 07:59:17;;;;;;;21.00;8.57;;;7.10;91.90;;;;;;5031095;28;20038;-75
2020/12/21 08:01:44;;;;;;;20.83;9.23;;;7.00;91.80;;;;;;5031360;28;20049;-75
2020/12/21 08:04:15;;;;;;;23.93;8.67;;;7.00;91.80;;;;;;5032190;28;20124;-76
2020/12/21 08:06:41;;;;;;;;;;;7.00;91.90;;;;;;5032059;28;20037;-75
2020/12/21 08:09:07;;;;;;;23.73;8.67;;;6.90;91.90;;;;;;5030917;28;19913;-75
2020/12/21 08:11:34;;;;;;;25.33;8.23;;;6.90;91.90;;;;;;5030344;28;20033;-75
2020/12/21 08:14:00;;;;;;;21.57;9.43;;;6.80;92.00;;;;;;5021782;28;20048;-75
2020/12/21 08:16:26;;;;;;;26.83;9.33;;;6.80;91.90;;;;;;5032049;28;20033;-75
2020/12/21 08:18:52;;;;;;;23.80;8.17;;;6.80;91.90;;;;;;5031597;28;20037;-75
2020/12/21 08:21:22;;;;;;;20.80;8.67;;;6.80;92.00;;;;;;5032087;28;20033;-75
2020/12/21 08:23:55;;;;;;;25.02;8.57;;;6.80;92.00;;;;;;5030922;28;20034;-74
2020/12/21 08:26:23;;;;;;;17.07;7.57;;;6.70;92.30;;;;;;5031776;28;20045;-75
2020/12/21 08:28:50;;;;;;;23.57;7.57;;;6.80;92.30;;;;;;5030179;28;20140;-75
2020/12/21 08:31:21;;;;;;;25.80;8.73;;;6.80;92.10;;;;;;5031843;28;20033;-75
2020/12/21 08:33:57;;;;;;;17.83;7.60;;;6.80;92.10;;;;;;5031212;28;20387;-75
2020/12/21 08:36:29;;;;;;;20.63;7.43;;;6.90;92.20;;;;;;5031298;28;20121;-75
2020/12/21 08:39:04;;;;;;;17.97;6.70;;;6.90;92.20;;;;;;5031590;28;20091;-76
2020/12/21 08:41:37;;;;;;;19.13;6.60;;;7.00;92.20;;;;;;5011702;28;20129;-75
2020/12/21 08:44:11;;;;;;;19.23;7.37;;;7.00;92.20;;;;;;5010198;28;20034;-75
2020/12/21 08:46:40;;;;;;;19.27;7.00;;;7.10;92.20;;;;;;5011240;28;20084;-75
2020/12/21 08:49:07;;;;;;;17.90;7.10;;;7.20;92.20;;;;;;5011786;28;20478;-75
2020/12/21 08:51:33;;;;;;;17.70;6.57;;;7.30;92.30;;;;;;5011028;28;20064;-75
2020/12/21 08:53:58;;;;;;;16.13;6.53;;;7.30;92.20;;;;;;5011470;28;20545;-75
2020/12/21 08:56:24;;;;;;;20.80;6.70;;;7.40;92.00;;;;;;5011204;28;20402;-75
2020/12/21 08:58:50;;;;;;;20.33;7.17;;;7.40;91.90;;;;;;4993170;28;20450;-76
2020/12/21 09:01:16;;;;;;;16.30;6.40;;;7.40;91.90;;;;;;5011567;28;20088;-76
2020/12/21 09:03:45;;;;;;;17.20;6.40;;;7.50;91.90;;;;;;5009208;28;20040;-76
2020/12/21 09:06:21;;;;;;;18.23;6.50;;;7.50;91.90;;;;;;5010053;28;20042;-75
2020/12/21 09:08:48;;;;;;;18.33;6.13;;;7.50;91.90;;;;;;5011237;28;20061;-75
2020/12/21 09:11:18;;;;;;;17.47;6.43;;;7.60;91.90;;;;;;5010093;28;20030;-75
2020/12/21 09:13:44;;;;;;;17.38;6.53;;;7.60;91.80;;;;;;5025462;28;20042;-75
2020/12/21 09:16:10;;;;;;;21.17;7.37;;;7.60;91.80;;;;;;5042958;28;20030;-75
2020/12/21 09:18:36;;;;;;;16.20;6.00;;;7.70;91.80;;;;;;5011518;28;20049;-76
2020/12/21 09:21:03;;;;;;;18.80;6.20;;;7.80;91.90;;;;;;5009583;28;20042;-75
2020/12/21 09:23:29;;;;;;;13.27;5.30;;;8.00;92.20;;;;;;5009477;28;20056;-75
2020/12/21 09:25:55;;;;;;;15.10;4.97;;;8.20;92.20;;;;;;5010256;28;20045;-74
2020/12/21 09:28:21;;;;;;;16.57;5.07;;;8.40;92.10;;;;;;5011022;28;20045;-76
2020/12/21 09:30:47;;;;;;;17.07;4.67;;;8.60;91.70;;;;;;5011245;28;20141;-75
2020/12/21 09:33:12;;;;;;;14.87;5.17;;;8.70;91.10;;;;;;5009080;28;20034;-76
2020/12/21 09:35:38;;;;;;;18.40;5.07;;;8.70;90.70;;;;;;5029553;28;20042;-75
2020/12/21 09:38:04;;;;;;;16.50;3.93;;;8.70;90.80;;;;;;5030201;28;20134;-76
2020/12/21 09:40:30;;;;;;;15.20;4.63;;;8.80;90.50;;;;;;5030808;28;20486;-75
2020/12/21 09:42:56;;;;;;;17.57;4.30;;;8.90;90.50;;;;;;5030200;28;20037;-75
2020/12/21 09:45:22;;;;;;;12.33;3.63;;;8.90;90.30;;;;;;5030247;28;20128;-76
2020/12/21 09:47:47;;;;;;;15.45;4.28;;;8.90;90.10;;;;;;5030672;28;20399;-75
2020/12/21 09:50:13;;;;;;;13.13;3.85;;;8.90;90.00;;;;;;5030088;28;20048;-75
2020/12/21 09:52:39;;;;;;;13.35;5.07;;;9.00;90.30;;;;;;5027370;28;20026;-76
2020/12/21 09:55:05;;;;;;;13.70;3.47;;;8.90;90.20;;;;;;5028042;28;20409;-76
2020/12/21 09:57:31;;;;;;;15.55;4.07;;;8.90;90.00;;;;;;5028071;28;20037;-76
2020/12/21 09:59:57;;;;;;;14.88;4.38;;;8.90;90.00;;;;;;5029265;28;20053;-75
2020/12/21 10:02:22;;;;;;;12.63;3.85;;;8.80;90.00;;;;;;5029825;28;20051;-75
2020/12/21 10:04:48;;;;;;;13.55;4.40;;;8.80;90.00;;;;;;5030397;28;20064;-76
2020/12/21 10:07:14;;;;;;;11.77;3.90;;;8.80;89.90;;;;;;5029178;28;20083;-76
2020/12/21 10:09:40;;;;;;;17.15;4.60;;;8.80;89.90;;;;;;5030182;28;20091;-76
2020/12/21 10:12:06;;;;;;;16.70;4.13;;;8.80;89.60;;;;;;5029872;28;20038;-75
2020/12/21 10:14:31;;;;;;;19.70;7.18;;;8.70;89.50;;;;;;5028573;28;20045;-76
2020/12/21 10:16:57;;;;;;;20.40;5.97;;;8.60;89.50;;;;;;5028550;28;20025;-75
2020/12/21 10:19:23;;;;;;;14.33;4.57;;;8.50;89.60;;;;;;5030415;28;20045;-75
2020/12/21 10:21:49;;;;;;;15.17;4.10;;;8.60;90.00;;;;;;5028416;28;20042;-75
2020/12/21 10:24:15;;;;;;;15.17;4.00;;;8.70;90.10;;;;;;5012696;28;20499;-75
2020/12/21 10:26:41;;;;;;;17.13;5.03;;;8.90;90.20;;;;;;5030189;28;20064;-75
2020/12/21 10:29:08;;;;;;;15.85;4.45;;;9.10;89.70;;;;;;5028735;28;20033;-75
2020/12/21 10:31:33;;;;;;;14.88;4.22;;;9.30;89.20;;;;;;5030078;28;20465;-75
2020/12/21 10:33:59;;;;;;;11.55;3.83;;;9.30;89.00;;;;;;5018788;28;20069;-75
2020/12/21 10:36:25;;;;;;;16.60;4.32;;;9.50;89.20;;;;;;4990910;28;20038;-75
2020/12/21 10:38:51;;;;;;;13.13;3.25;;;9.70;88.90;;;;;;4994496;28;20514;-75
2020/12/21 10:41:17;;;;;;;13.52;3.78;;;9.80;87.20;;;;;;4994135;28;20034;-75
2020/12/21 10:43:43;;;;;;;15.48;3.80;;;9.60;86.90;;;;;;4993943;28;20487;-75
2020/12/21 10:46:09;;;;;;;11.73;3.58;;;9.50;87.30;;;;;;4993862;28;20049;-75
2020/12/21 10:48:35;;;;;;;10.85;3.45;;;9.50;87.70;;;;;;4994374;28;20038;-75
2020/12/21 10:51:01;;;;;;;14.35;5.18;;;9.70;88.00;;;;;;4994302;28;20046;-75
2020/12/21 10:53:26;;;;;;;12.60;3.90;;;10.10;87.10;;;;;;4992066;28;20065;-75
2020/12/21 10:55:52;;;;;;;15.73;4.78;;;10.50;85.80;;;;;;4994093;28;20045;-76
2020/12/21 10:58:18;;;;;;;11.57;3.10;;;11.00;84.60;;;;;;4993743;28;20049;-75
2020/12/21 11:00:45;;;;;;;9.05;3.05;;;11.30;83.00;;;;;;4994099;28;20109;-75
2020/12/21 11:03:11;;;;;;;14.38;3.25;;;11.40;82.20;;;;;;4993596;28;20557;-75
2020/12/21 11:05:37;;;;;;;10.15;2.90;;;11.10;80.80;;;;;;4992301;28;20042;-75
2020/12/21 11:08:06;;;;;;;15.55;3.35;;;10.70;80.90;;;;;;4993943;28;20496;-75
2020/12/21 11:10:31;;;;;;;16.13;4.13;;;10.30;82.10;;;;;;4992131;28;20038;-75
2020/12/21 11:12:57;;;;;;;11.95;3.10;;;10.00;83.50;;;;;;4993207;28;20042;-75
2020/12/21 11:15:23;;;;;;;12.25;3.33;;;9.90;84.80;;;;;;4993937;28;20415;-75
2020/12/21 11:17:49;;;;;;;12.35;2.92;;;9.90;84.90;;;;;;4992013;28;20122;-75
2020/12/21 11:20:15;;;;;;;10.48;3.17;;;9.90;84.80;;;;;;4993754;28;20042;-75
2020/12/21 11:22:42;;;;;;;12.13;3.50;;;9.90;84.90;;;;;;4992775;28;20089;-75
2020/12/21 11:25:08;;;;;;;14.20;3.47;;;10.00;85.50;;;;;;4993401;28;20046;-75
2020/12/21 11:27:34;;;;;;;12.45;2.97;;;10.30;85.60;;;;;;4993693;28;20503;-75
2020/12/21 11:30:00;;;;;;;11.13;3.22;;;10.50;85.10;;;;;;4993124;28;20026;-75
2020/12/21 11:32:26;;;;;;;13.73;3.60;;;10.60;84.30;;;;;;4991825;28;20093;-76
2020/12/21 11:34:51;;;;;;;11.45;3.20;;;10.70;83.30;;;;;;4992653;28;20495;-73
2020/12/21 11:37:18;;;;;;;11.20;3.17;;;10.70;83.00;;;;;;4976129;28;20070;-75
2020/12/21 11:39:44;;;;;;;11.75;2.83;;;10.70;82.10;;;;;;4993299;28;20054;-75
2020/12/21 11:42:10;;;;;;;17.08;5.43;;;10.50;81.50;;;;;;4991144;28;20053;-74
2020/12/21 11:44:36;;;;;;;14.15;3.70;;;10.30;81.40;;;;;;4993374;28;20399;-74
2020/12/21 11:47:07;;;;;;;11.48;2.90;;;10.10;81.80;;;;;;4992562;28;20043;-74
2020/12/21 11:49:33;;;;;;;10.38;2.60;;;9.90;81.90;;;;;;4993053;28;20034;-75
2020/12/21 11:51:58;;;;;;;9.65;2.65;;;9.80;82.20;;;;;;4992318;28;20530;-74
2020/12/21 11:54:24;;;;;;;12.93;2.72;;;9.70;82.40;;;;;;4991758;28;20034;-75
2020/12/21 11:56:54;;;;;;;10.50;3.10;;;9.70;82.60;;;;;;4993066;28;20042;-75
2020/12/21 11:59:20;;;;;;;10.55;2.75;;;9.70;82.70;;;;;;4991298;28;20045;-76
2020/12/21 12:01:46;;;;;;;10.52;2.90;;;9.70;82.80;;;;;;4991352;28;20042;-75
2020/12/21 12:04:12;;;;;;;7.97;2.40;;;10.00;83.00;;;;;;4992887;28;20046;-75
2020/12/21 12:06:37;;;;;;;9.10;2.60;;;10.30;83.10;;;;;;4992375;28;20065;-75
2020/12/21 12:09:03;;;;;;;9.02;2.75;;;10.80;83.60;;;;;;4975313;28;20585;-75
2020/12/21 12:11:29;;;;;;;7.55;2.40;;;11.30;84.40;;;;;;4992423;28;20039;-75
2020/12/21 12:13:54;;;;;;;8.95;2.75;;;11.50;84.30;;;;;;4992156;28;20046;-76
2020/12/21 12:16:26;;;;;;;9.43;3.22;;;11.60;83.10;;;;;;4991395;28;20066;-75
2020/12/21 12:18:51;;;;;;;10.77;2.72;;;11.70;81.40;;;;;;4992480;28;20062;-75
2020/12/21 12:21:26;;;;;;;12.60;2.55;;;11.90;80.40;;;;;;4992517;28;20445;-76
2020/12/21 12:23:52;;;;;;;11.40;3.00;;;12.10;79.40;;;;;;4991652;28;20046;-75
2020/12/21 12:26:19;;;;;;;11.18;3.13;;;12.10;77.70;;;;;;4989039;28;20050;-75
2020/12/21 12:28:45;;;;;;;10.27;2.65;;;12.00;77.40;;;;;;4990751;28;20034;-76
2020/12/21 12:31:20;;;;;;;9.77;2.30;;;12.30;77.30;;;;;;4992301;28;20034;-76
2020/12/21 12:33:47;;;;;;;15.10;2.65;;;12.70;77.20;;;;;;4991552;28;20092;-75
2020/12/21 12:36:24;;;;;;;10.25;2.60;;;12.90;75.60;;;;;;4991003;28;20053;-75
2020/12/21 12:38:49;;;;;;;11.63;3.10;;;12.90;74.50;;;;;;4991772;28;20053;-76
2020/12/21 12:41:16;;;;;;;9.52;2.50;;;12.80;74.20;;;;;;4991109;28;20039;-75
2020/12/21 12:43:42;;;;;;;11.25;2.78;;;12.50;73.20;;;;;;4991698;28;20034;-75
2020/12/21 12:46:08;;;;;;;10.73;2.83;;;12.20;74.10;;;;;;4991673;28;20042;-75